EGTE

Exeter International Airport

Exeter, United Kingdom
TAF AMD EGTE 221510Z 2215/2224 27010KT 9999 SCT025 TEMPO 2215/2224 6000 SHRA BKN012 TEMPO 2215/2218 29017G27KT PROB30 TEMPO 2215/2224 3000 SHRASN BKN008
Issued Valid From Valid To
Jan-22 @ 15:10 UTC
(2 hours ago)
Jan-22 @ 15:00 UTC
(2 hours ago)
Jan-23 @ 00:00 UTC
(in 7 hours)
Jan-22 @ 15:00 to Jan-23 @ 00:00
TAF AMD EGTE 221510Z 2215/2224 27010KT 9999 SCT025
Wind Visibility Clouds
270° at 10 knots 10,000+ meters
  • Scattered at 2,500' AGL
Temporary Jan-22 @ 15:00 to Jan-22 @ 18:00
TEMPO 2215/2218 29017G27KT
Wind
290° at 17 knots
 Gusting to 27 knots
Temporary Jan-22 @ 15:00 to Jan-23 @ 00:00
TEMPO 2215/2218 29017G27KT
Visibility Clouds Conditions
6,003 meters
  • Broken at 1,200' AGL
  • Rain
Temporary  (Probability 30%) Jan-22 @ 15:00 to Jan-23 @ 00:00
PROB30 TEMPO 2215/2224 3000 SHRASN BKN008
Visibility Clouds Conditions
2,993 meters
  • Broken at 800' AGL
  • Rain
  • Snow
TAF AMD EGTE 221510Z 2215/2224 27010KT 9999 SCT025 TEMPO 2215/2224 6000 SHRA BKN012 TEMPO 2215/2218 29017G27KT PROB30 TEMPO 2215/2224 3000 SHRASN BKN008
Issued Jan-22 @ 15:10 UTC
(2 hours ago)
Valid From Jan-22 @ 15:00 UTC
(2 hours ago)
Valid To Jan-23 @ 00:00 UTC
(in 7 hours)
Jan-22 @ 15:00 - Jan-23 @ 00:00
Wind Visibility
270° at 10 knots 10,000+ meters
Clouds
  • Scattered at 2,500' AGL
Temporary Jan-22 @ 15:00 - Jan-22 @ 18:00
Wind
290° at 17 knots
 Gusting to 27 knots
Temporary Jan-22 @ 15:00 - Jan-23 @ 00:00
Clouds
  • Broken at 1,200' AGL
Conditions
  • Rain
Probability 30% Temporary Jan-22 @ 15:00 - Jan-23 @ 00:00
Clouds
  • Broken at 800' AGL
Conditions
  • Rain
  • Snow